• Join FlightAware (Why Join?)
  • Login
  • US Flag 
06:32AM EDT


 

Airport Tracker/Info


-or-


 

Live Flight TrackerFlight Track Log ✈ CSZ9957 ✈ 26-Jul-2013 ✈ ZGSZ / SZX - ZBDS / DSN

Flight Track Log - Related Links

Times and Time Zones

All times are in EDT time to prevent confusion due to time zone crossing. See the CSZ9957 flight status page for this flight to view local times or setup timezone preferences in your user account.

Time Position Orientation Groundspeed Altitude Reporting Facility
EDT Latitude Longitude Course Direction KTS MPH feet Rate Location/Type
07:30PM 23.3487 113.6806 350° North  Level Estimated
07:31PM 23.4669 113.6585 350° North  Level Estimated
07:32PM 23.5851 113.6363 350° North  Level Estimated
07:33PM 23.7032 113.6141 350° North  Level Estimated
07:34PM 23.8214 113.5919 350° North  Level Estimated
07:35PM 23.9396 113.5696 350° North  Level Estimated
07:36PM 24.0578 113.5473 350° North  Level Estimated
07:37PM 24.1759 113.5250 350° North  Level Estimated
07:38PM 24.2941 113.5026 350° North  Level Estimated
07:39PM 24.4123 113.4801 350° North  Level Estimated
07:40PM 24.5304 113.4577 350° North  Level Estimated
07:41PM 24.6486 113.4352 350° North  Level Estimated
07:42PM 24.7668 113.4126 350° North  Level Estimated
07:43PM 24.8849 113.3900 350° North  Level Estimated
07:44PM 25.0031 113.3673 350° North  Level Estimated
07:45PM 25.1212 113.3447 350° North  Level Estimated
07:46PM 25.2393 113.3219 350° North  Level Estimated
07:47PM 25.3575 113.2991 350° North  Level Estimated
07:48PM 25.4756 113.2763 350° North  Level Estimated
07:49PM 25.5937 113.2534 350° North  Level Estimated
07:50PM 25.7119 113.2305 350° North  Level Estimated
07:51PM 25.8300 113.2076 350° North  Level Estimated
07:52PM 25.9481 113.1846 350° North  Level Estimated
07:53PM 26.0662 113.1615 350° North  Level Estimated
07:54PM 26.1843 113.1384 350° North  Level Estimated
07:55PM 26.3025 113.1153 350° North  Level Estimated
07:56PM 26.4206 113.0921 350° North  Level Estimated
07:57PM 26.5387 113.0688 350° North  Level Estimated
07:58PM 26.6568 113.0456 350° North  Level Estimated
07:59PM 26.7749 113.0222 350° North  Level Estimated
08:00PM 26.8929 112.9988 350° North  Level Estimated
08:01PM 27.0110 112.9754 350° North  Level Estimated
08:02PM 27.1291 112.9519 350° North  Level Estimated
08:03PM 27.2472 112.9284 350° North  Level Estimated
08:04PM 27.3653 112.9048 350° North  Level Estimated
08:05PM 27.4833 112.8812 350° North  Level Estimated
08:06PM 27.6014 112.8575 350° North  Level Estimated
08:07PM 27.7195 112.8338 350° North  Level Estimated
08:08PM 27.8375 112.8100 350° North  Level Estimated
08:09PM 27.9556 112.7861 350° North  Level Estimated
08:10PM 28.0736 112.7623 350° North  Level Estimated
08:11PM 28.1917 112.7383 350° North  Level Estimated
08:12PM 28.3097 112.7143 350° North  Level Estimated
08:13PM 28.4277 112.6903 350° North  Level Estimated
08:14PM 28.5458 112.6662 350° North  Level Estimated
08:15PM 28.6638 112.6420 350° North  Level Estimated
08:16PM 28.7818 112.6178 350° North  Level Estimated
08:17PM 28.8999 112.5935 350° North  Level Estimated
08:18PM 29.0179 112.5692 350° North  Level Estimated
08:19PM 29.1359 112.5448 350° North  Level Estimated
08:20PM 29.2539 112.5204 350° North  Level Estimated
08:21PM 29.3719 112.4959 350° North  Level Estimated
08:22PM 29.4899 112.4714 350° North  Level Estimated
08:23PM 29.6079 112.4468 350° North  Level Estimated
08:24PM 29.7259 112.4221 350° North  Level Estimated
08:25PM 29.8439 112.3974 350° North  Level Estimated
08:26PM 29.9618 112.3726 350° North  Level Estimated
08:27PM 30.0798 112.3478 350° North  Level Estimated
08:28PM 30.1978 112.3229 350° North  Level Estimated
08:29PM 30.3158 112.2979 350° North  Level Estimated
08:30PM 30.4337 112.2729 350° North  Level Estimated
08:31PM 30.5517 112.2478 350° North  Level Estimated
08:32PM 30.6696 112.2227 350° North  Level Estimated
08:33PM 30.7876 112.1975 350° North  Level Estimated
08:34PM 30.9055 112.1722 350° North  Level Estimated
08:35PM 31.0235 112.1469 350° North  Level Estimated
08:36PM 31.1414 112.1215 350° North  Level Estimated
08:37PM 31.2593 112.0960 350° North  Level Estimated
08:38PM 31.3772 112.0705 350° North  Level Estimated
08:39PM 31.4952 112.0450 350° North  Level Estimated
08:40PM 31.6131 112.0193 350° North  Level Estimated
08:41PM 31.7310 111.9936 349° North  Level Estimated
08:42PM 31.8489 111.9678 349° North  Level Estimated
08:43PM 31.9668 111.9420 349° North  Level Estimated
08:44PM 32.0847 111.9161 349° North  Level Estimated
08:45PM 32.2026 111.8901 349° North  Level Estimated
08:46PM 32.3204 111.8641 349° North  Level Estimated
08:47PM 32.4383 111.8380 349° North  Level Estimated
08:48PM 32.5562 111.8118 349° North  Level Estimated
08:49PM 32.6740 111.7856 349° North  Level Estimated
08:50PM 32.7919 111.7593 349° North  Level Estimated
08:51PM 32.9098 111.7329 349° North  Level Estimated
08:52PM 33.0276 111.7064 349° North  Level Estimated
08:53PM 33.1455 111.6799 349° North  Level Estimated
08:54PM 33.2633 111.6533 349° North  Level Estimated
08:55PM 33.3811 111.6266 349° North  Level Estimated
08:56PM 33.4990 111.5999 349° North  Level Estimated
08:57PM 33.6168 111.5731 349° North  Level Estimated
08:58PM 33.7346 111.5462 349° North  Level Estimated
08:59PM 33.8524 111.5192 349° North  Level Estimated
09:00PM 33.9702 111.4922 349° North  Level Estimated
09:01PM 34.0880 111.4651 349° North  Level Estimated
09:02PM 34.2058 111.4379 349° North  Level Estimated
09:03PM 34.3236 111.4107 349° North  Level Estimated
09:04PM 34.4413 111.3833 349° North  Level Estimated
09:05PM 34.5591 111.3559 349° North  Level Estimated
09:06PM 34.6769 111.3284 349° North  Level Estimated
09:07PM 34.7946 111.3009 349° North  Level Estimated
09:08PM 34.9124 111.2732 349° North  Level Estimated
09:09PM 35.0301 111.2455 349° North  Level Estimated
09:10PM 35.1479 111.2177 349° North  Level Estimated
09:11PM 35.2656 111.1898 349° North  Level Estimated
09:12PM 35.3833 111.1618 349° North  Level Estimated
09:13PM 35.5011 111.1338 349° North  Level Estimated
09:14PM 35.6188 111.1056 349° North  Level Estimated
09:15PM 35.7365 111.0774 349° North  Level Estimated
09:16PM 35.8542 111.0491 349° North  Level Estimated
09:17PM 35.9719 111.0207 349° North  Level Estimated
09:18PM 36.0896 110.9922 349° North  Level Estimated
09:19PM 36.2073 110.9637 349° North  Level Estimated
09:20PM 36.3249 110.9351 349° North  Level Estimated
09:21PM 36.4426 110.9063 349° North  Level Estimated
09:22PM 36.5603 110.8775 349° North  Level Estimated
09:23PM 36.6779 110.8486 349° North  Level Estimated
09:24PM 36.7956 110.8196 349° North  Level Estimated
09:25PM 36.9132 110.7905 349° North  Level Estimated
09:26PM 37.0308 110.7614 349° North  Level Estimated
09:27PM 37.1485 110.7321 349° North  Level Estimated
09:28PM 37.2661 110.7028 349° North  Level Estimated
09:29PM 37.3837 110.6733 349° North  Level Estimated
09:30PM 37.5013 110.6438 349° North  Level Estimated
09:31PM 37.6189 110.6142 349° North  Level Estimated
09:32PM 37.7365 110.5844 349° North  Level Estimated
09:33PM 37.8541 110.5546 349° North  Level Estimated
09:34PM 37.9716 110.5247 349° North  Level Estimated
09:35PM 38.0892 110.4947 349° North  Level Estimated
09:36PM 38.2068 110.4646 349° North  Level Estimated
09:37PM 38.3243 110.4344 349° North  Level Estimated
09:38PM 38.4419 110.4041 349° North  Level Estimated
09:39PM 38.5594 110.3737 349° North  Level Estimated
09:40PM 38.6769 110.3432 349° North  Level Estimated
09:41PM 38.7944 110.3126 349° North  Level Estimated
09:42PM 38.9120 110.2819 349° North  Level Estimated
09:43PM 39.0295 110.2511 348° North  Level Estimated
09:44PM 39.1470 110.2202 348° North  Level Estimated
09:45PM 39.2645 110.1892 348° North  Level Estimated
09:46PM 39.3819 110.1580 348° North  Level Estimated
09:47PM 39.4994 110.1268 348° North  Level Estimated
09:48PM 39.6169 110.0955 348° North  Level Estimated
09:49PM 39.7343 110.0641 348° North  Level Estimated
09:50PM 39.8500 110.0330 348° North  Level Estimated
09:51PM 39.8500 110.0330 North  Level Estimated
09:52PM 39.8500 110.0330 North  Level Estimated
09:53PM 39.8500 110.0330 North  Level Estimated
09:54PM 39.8500 110.0330 North  Level Estimated
09:55PM 39.8500 110.0330 North  Level Estimated
09:56PM 39.8500 110.0330 North  Level Estimated
09:57PM 39.8500 110.0330 North  Level Estimated
09:58PM 39.8500 110.0330 North  Level Estimated
09:59PM 39.8500 110.0330 North  Level Estimated
10:00PM 39.8500 110.0330 North  Level Estimated
10:01PM 39.8500 110.0330 North  Level Estimated
10:02PM 39.8500 110.0330 North  Level Estimated
10:03PM 39.8500 110.0330 North  Level Estimated
10:04PM 39.8500 110.0330 North  Level Estimated
10:05PM 39.8500 110.0330 North  Level Estimated
10:06PM 39.8500 110.0330 North  Level Estimated